createdAt,value
2023-02-27T00:03:26.663Z,2.60
2023-02-27T00:07:08.842Z,2.50
2023-02-27T00:10:50.650Z,2.50
2023-02-27T00:14:32.453Z,2.50
2023-02-27T00:18:14.560Z,2.40
2023-02-27T00:21:56.342Z,2.40
2023-02-27T00:25:38.164Z,2.40
2023-02-27T00:29:19.979Z,2.30
2023-02-27T00:33:01.793Z,2.30
2023-02-27T00:36:43.509Z,2.30
2023-02-27T00:40:28.016Z,2.20
2023-02-27T00:44:09.738Z,2.20
2023-02-27T00:47:51.478Z,2.20
2023-02-27T00:51:33.247Z,2.10
2023-02-27T00:55:15.006Z,2.10
2023-02-27T00:58:56.746Z,2.10
2023-02-27T01:02:39.017Z,2.10
2023-02-27T01:06:20.832Z,2.00
2023-02-27T01:10:03.030Z,2.00
2023-02-27T01:13:46.169Z,2.00
2023-02-27T01:17:28.009Z,2.00
2023-02-27T01:21:09.745Z,2.00
2023-02-27T01:24:51.620Z,1.90
2023-02-27T01:28:33.410Z,1.90
2023-02-27T01:32:15.219Z,1.90
2023-02-27T01:35:57.057Z,1.80
2023-02-27T01:39:38.892Z,1.80
2023-02-27T01:43:22.227Z,1.80
2023-02-27T01:47:03.991Z,1.70
2023-02-27T01:50:53.395Z,1.70
2023-02-27T01:54:41.886Z,1.70
2023-02-27T01:58:24.146Z,1.70
2023-02-27T02:02:14.602Z,1.60
2023-02-27T02:05:58.080Z,1.60
2023-02-27T02:09:51.322Z,1.60
2023-02-27T02:13:34.038Z,1.50
2023-02-27T02:17:40.205Z,1.50
2023-02-27T02:21:43.648Z,1.40
2023-02-27T02:25:34.471Z,1.40
2023-02-27T02:29:28.228Z,1.40
2023-02-27T02:33:36.868Z,1.30
2023-02-27T02:37:33.664Z,1.30
2023-02-27T02:41:47.136Z,1.20
2023-02-27T02:45:45.539Z,1.20
2023-02-27T02:49:50.019Z,1.10
2023-02-27T02:54:16.696Z,1.10
2023-02-27T02:58:09.096Z,1.10
2023-02-27T03:02:02.744Z,1.00
2023-02-27T03:05:55.489Z,1.00
2023-02-27T03:09:50.819Z,0.90
2023-02-27T03:13:37.588Z,0.90
2023-02-27T03:17:27.541Z,0.90
2023-02-27T03:21:13.789Z,0.80
2023-02-27T03:24:58.228Z,0.80
2023-02-27T03:28:46.313Z,0.80
2023-02-27T03:32:52.741Z,0.80
2023-02-27T03:36:47.676Z,0.80
2023-02-27T03:40:37.813Z,0.70
2023-02-27T03:44:26.766Z,0.70
2023-02-27T03:48:09.103Z,0.60
2023-02-27T03:51:50.952Z,0.60
2023-02-27T03:55:40.954Z,0.50
2023-02-27T03:59:25.012Z,0.50
2023-02-27T04:03:06.932Z,0.50
2023-02-27T04:07:22.703Z,0.50
2023-02-27T04:11:28.057Z,0.40
2023-02-27T04:15:54.150Z,0.40
2023-02-27T04:19:59.841Z,0.30
2023-02-27T04:23:54.231Z,0.30
2023-02-27T04:27:48.851Z,0.30
2023-02-27T04:31:45.717Z,0.20
2023-02-27T04:35:50.908Z,0.20
2023-02-27T04:39:39.593Z,0.20
2023-02-27T04:43:24.509Z,0.10
2023-02-27T04:47:09.525Z,0.10
2023-02-27T04:51:02.026Z,0.10
2023-02-27T04:54:45.992Z,0.10
2023-02-27T04:58:38.332Z,0.10
2023-02-27T05:02:28.502Z,0.00
2023-02-27T05:06:11.526Z,0.00
2023-02-27T05:09:59.005Z,0.00
2023-02-27T05:13:46.810Z,0.00
2023-02-27T05:17:37.500Z,0.00
2023-02-27T05:21:34.253Z,-0.10
2023-02-27T05:25:40.836Z,-0.10
2023-02-27T05:29:52.025Z,-0.10
2023-02-27T05:33:41.267Z,-0.20
2023-02-27T05:37:32.700Z,-0.20
2023-02-27T05:41:36.891Z,-0.20
2023-02-27T05:45:25.223Z,-0.20
2023-02-27T05:49:35.813Z,-0.30
2023-02-27T05:53:21.165Z,-0.30
2023-02-27T05:57:06.899Z,-0.30
2023-02-27T06:00:54.547Z,-0.30
2023-02-27T06:04:36.696Z,-0.30
2023-02-27T06:08:18.933Z,-0.30
2023-02-27T06:12:01.405Z,-0.30
2023-02-27T06:15:44.318Z,-0.30
2023-02-27T06:19:26.041Z,-0.30
2023-02-27T06:23:08.169Z,-0.20
2023-02-27T06:26:49.913Z,-0.20
2023-02-27T06:30:32.028Z,-0.10
2023-02-27T06:34:13.810Z,0.00
2023-02-27T06:37:56.485Z,0.00
2023-02-27T06:41:38.318Z,0.10
2023-02-27T06:45:20.223Z,0.20
2023-02-27T06:49:02.247Z,0.30
2023-02-27T06:52:44.006Z,0.30
2023-02-27T06:56:26.104Z,0.40
2023-02-27T07:00:10.067Z,0.40
2023-02-27T07:03:51.989Z,0.50
2023-02-27T07:07:38.004Z,0.60
2023-02-27T07:11:20.403Z,0.60
2023-02-27T07:15:02.259Z,0.70
2023-02-27T07:18:44.017Z,0.70
2023-02-27T07:22:25.768Z,0.80
2023-02-27T07:26:08.089Z,0.80
2023-02-27T07:29:49.860Z,0.80
2023-02-27T07:33:32.818Z,0.80
2023-02-27T07:37:14.592Z,0.70
2023-02-27T07:40:56.450Z,0.70
2023-02-27T07:44:38.211Z,0.80
2023-02-27T07:48:19.946Z,0.80
2023-02-27T07:52:01.810Z,0.90
2023-02-27T07:55:43.561Z,1.00
2023-02-27T07:59:25.317Z,1.10
2023-02-27T08:03:07.076Z,1.20
2023-02-27T08:06:48.849Z,1.30
2023-02-27T08:10:30.702Z,1.40
2023-02-27T08:14:12.426Z,1.50
2023-02-27T08:17:54.397Z,1.60
2023-02-27T08:21:36.316Z,1.80
2023-02-27T08:25:18.298Z,1.90
2023-02-27T08:29:00.029Z,2.00
2023-02-27T08:32:42.054Z,2.10
2023-02-27T08:36:23.816Z,2.20
2023-02-27T08:40:07.207Z,2.30
2023-02-27T08:43:49.650Z,2.40
2023-02-27T08:47:31.426Z,2.50
2023-02-27T08:51:13.182Z,2.70
2023-02-27T08:54:54.919Z,2.80
2023-02-27T08:58:36.713Z,3.00
2023-02-27T09:02:18.563Z,3.10
2023-02-27T09:06:00.387Z,3.30
2023-02-27T09:09:42.109Z,3.40
2023-02-27T09:13:24.351Z,3.50
2023-02-27T09:17:06.974Z,3.60
2023-02-27T09:20:52.203Z,3.80
2023-02-27T09:24:34.062Z,4.00
2023-02-27T09:28:16.002Z,4.00
2023-02-27T09:31:57.871Z,4.20
2023-02-27T09:35:40.044Z,4.30
2023-02-27T09:39:21.866Z,4.40
2023-02-27T09:43:14.219Z,4.60
2023-02-27T09:46:56.633Z,4.80
2023-02-27T09:50:44.647Z,5.00
2023-02-27T09:54:33.261Z,5.30
2023-02-27T09:58:32.010Z,5.40
2023-02-27T10:02:30.787Z,5.40
2023-02-27T10:06:27.048Z,5.50
2023-02-27T10:10:08.944Z,5.70
2023-02-27T10:13:59.115Z,5.80
2023-02-27T10:17:48.561Z,5.90
2023-02-27T10:21:35.540Z,6.00
2023-02-27T10:25:30.692Z,6.00
2023-02-27T10:29:31.389Z,6.00
2023-02-27T10:33:25.135Z,6.20
2023-02-27T10:37:13.402Z,6.60
2023-02-27T10:40:56.741Z,7.10
2023-02-27T10:44:38.586Z,7.80
2023-02-27T10:48:22.604Z,8.40
2023-02-27T10:52:14.112Z,8.80
2023-02-27T10:56:05.405Z,8.90
2023-02-27T11:00:09.368Z,9.00
2023-02-27T11:03:56.104Z,9.20
2023-02-27T11:07:39.630Z,9.30
2023-02-27T11:11:28.281Z,9.40
2023-02-27T11:15:16.370Z,9.60
2023-02-27T11:18:58.605Z,9.90
2023-02-27T11:22:41.693Z,10.30
2023-02-27T11:26:57.798Z,10.50
2023-02-27T11:30:42.256Z,10.60
2023-02-27T11:34:39.706Z,10.50
2023-02-27T11:38:29.267Z,10.70
2023-02-27T11:42:32.496Z,11.50
2023-02-27T11:46:45.426Z,12.60
2023-02-27T11:50:55.641Z,13.50
2023-02-27T11:54:48.646Z,14.70
2023-02-27T11:58:43.938Z,15.40
2023-02-27T12:02:51.262Z,16.30
2023-02-27T12:06:50.132Z,16.80
2023-02-27T12:10:52.082Z,16.90
2023-02-27T12:14:58.290Z,16.60
2023-02-27T12:18:53.566Z,15.80
2023-02-27T12:22:40.542Z,15.00
2023-02-27T12:26:37.365Z,14.40
2023-02-27T12:30:26.868Z,14.00
2023-02-27T12:34:35.817Z,13.60
2023-02-27T12:38:19.998Z,13.30
2023-02-27T12:42:19.568Z,13.50
2023-02-27T12:46:23.071Z,14.10
2023-02-27T12:50:19.761Z,14.20
2023-02-27T12:54:19.005Z,13.70
2023-02-27T12:58:22.731Z,13.10
2023-02-27T13:02:39.375Z,12.60
2023-02-27T13:06:26.057Z,12.40
2023-02-27T13:10:24.686Z,12.10
2023-02-27T13:14:30.655Z,11.90
2023-02-27T13:18:15.119Z,11.90
2023-02-27T13:22:43.119Z,12.00
2023-02-27T13:26:54.152Z,12.30
2023-02-27T13:30:53.101Z,13.20
2023-02-27T13:34:44.769Z,13.80
2023-02-27T13:38:47.828Z,13.70
2023-02-27T13:42:30.696Z,13.30
2023-02-27T13:46:23.638Z,12.80
2023-02-27T13:50:25.422Z,12.50
2023-02-27T13:54:16.346Z,12.20
2023-02-27T13:58:00.869Z,12.00
2023-02-27T14:01:51.725Z,11.90
2023-02-27T14:05:39.740Z,11.80
2023-02-27T14:09:22.235Z,11.60
2023-02-27T14:13:05.324Z,11.60
2023-02-27T14:16:48.338Z,11.70
2023-02-27T14:20:30.956Z,11.80
2023-02-27T14:24:15.177Z,12.20
2023-02-27T14:27:59.441Z,12.70
2023-02-27T14:31:45.080Z,13.20
2023-02-27T14:35:29.075Z,13.30
2023-02-27T14:39:28.697Z,13.10
2023-02-27T14:43:55.898Z,12.90
2023-02-27T14:47:38.414Z,12.60
2023-02-27T14:51:21.369Z,12.40
2023-02-27T14:55:27.991Z,12.30
2023-02-27T14:59:23.283Z,12.30
2023-02-27T15:03:27.652Z,12.20
2023-02-27T15:07:19.299Z,11.90
2023-02-27T15:11:02.420Z,11.70
2023-02-27T15:14:49.611Z,11.60
2023-02-27T15:18:31.310Z,11.50
2023-02-27T15:22:38.495Z,11.50
2023-02-27T15:26:21.122Z,11.60
2023-02-27T15:30:04.132Z,11.70
2023-02-27T15:33:46.305Z,11.60
2023-02-27T15:37:35.248Z,12.10
2023-02-27T15:41:20.938Z,12.90
2023-02-27T15:45:03.812Z,13.10
2023-02-27T15:48:45.930Z,12.90
2023-02-27T15:52:33.485Z,12.50
2023-02-27T15:56:15.710Z,12.10
2023-02-27T16:00:00.973Z,11.80
2023-02-27T16:03:45.913Z,11.50
2023-02-27T16:11:26.130Z,11.10
2023-02-27T16:15:25.069Z,11.00
2023-02-27T16:19:31.012Z,11.00
2023-02-27T16:23:25.248Z,10.90
2023-02-27T16:27:15.358Z,10.80
2023-02-27T16:31:00.761Z,10.70
2023-02-27T16:34:46.612Z,10.60
2023-02-27T16:38:28.626Z,10.50
2023-02-27T16:42:10.548Z,10.40
2023-02-27T16:45:52.925Z,10.40
2023-02-27T16:49:34.763Z,10.30
2023-02-27T16:53:17.911Z,10.20
2023-02-27T16:56:59.963Z,10.10
2023-02-27T17:00:43.560Z,10.00
2023-02-27T17:04:27.712Z,9.90
2023-02-27T17:08:11.362Z,9.80
2023-02-27T17:11:57.287Z,9.70
2023-02-27T17:15:39.021Z,9.80
2023-02-27T17:19:22.269Z,9.70
2023-02-27T17:23:04.126Z,9.70
2023-02-27T17:26:46.146Z,9.70
2023-02-27T17:30:28.523Z,9.70
2023-02-27T17:34:10.571Z,9.60
2023-02-27T17:37:52.398Z,9.60
2023-02-27T17:41:34.185Z,9.60
2023-02-27T17:45:16.084Z,9.60
2023-02-27T17:49:00.671Z,9.50
2023-02-27T17:52:42.675Z,9.50
2023-02-27T17:56:24.853Z,9.40
2023-02-27T18:00:09.149Z,9.40
2023-02-27T18:03:53.579Z,9.30
2023-02-27T18:07:35.715Z,9.20
2023-02-27T18:11:21.192Z,9.00
2023-02-27T18:15:04.026Z,9.00
2023-02-27T18:18:45.815Z,8.80
2023-02-27T18:22:29.990Z,8.80
2023-02-27T18:26:29.328Z,8.60
2023-02-27T18:30:13.122Z,8.60
2023-02-27T18:33:55.130Z,8.50
2023-02-27T18:37:37.080Z,8.40
2023-02-27T18:41:18.964Z,8.40
2023-02-27T18:45:00.780Z,8.40
2023-02-27T18:48:45.023Z,8.30
2023-02-27T18:52:28.823Z,8.30
2023-02-27T18:56:12.093Z,8.30
2023-02-27T18:59:54.030Z,8.30
2023-02-27T19:11:29.677Z,8.40
2023-02-27T19:15:12.094Z,8.30
2023-02-27T19:18:58.371Z,8.20
2023-02-27T19:22:40.626Z,8.10
2023-02-27T19:26:24.216Z,8.00
2023-02-27T19:30:08.078Z,7.90
2023-02-27T19:33:50.162Z,7.80
2023-02-27T19:37:32.663Z,7.60
2023-02-27T19:41:16.744Z,7.50
2023-02-27T19:44:58.489Z,7.50
2023-02-27T19:48:40.926Z,7.40
2023-02-27T19:52:22.654Z,7.30
2023-02-27T19:56:12.125Z,7.20
2023-02-27T19:59:53.979Z,7.20
2023-02-27T20:03:36.920Z,7.10
2023-02-27T20:07:19.278Z,7.10
2023-02-27T20:11:03.337Z,7.00
2023-02-27T20:14:45.070Z,6.90
2023-02-27T20:18:27.636Z,6.90
2023-02-27T20:22:13.628Z,6.80
2023-02-27T20:25:55.434Z,6.70
2023-02-27T20:29:37.149Z,6.70
2023-02-27T20:33:18.892Z,6.60
2023-02-27T20:37:00.637Z,6.50
2023-02-27T20:40:43.080Z,6.40
2023-02-27T20:44:24.924Z,6.40
2023-02-27T20:48:07.295Z,6.30
2023-02-27T20:51:49.133Z,6.30
2023-02-27T20:55:30.924Z,6.10
2023-02-27T20:59:15.770Z,6.10
2023-02-27T21:02:57.553Z,6.00
2023-02-27T21:06:39.321Z,6.00
2023-02-27T21:10:21.170Z,5.90
2023-02-27T21:14:05.398Z,5.80
2023-02-27T21:17:47.133Z,5.80
2023-02-27T21:21:32.785Z,5.70
2023-02-27T21:25:15.106Z,5.60
2023-02-27T21:29:06.100Z,5.50
2023-02-27T21:32:47.834Z,5.50
2023-02-27T21:36:33.312Z,5.40
2023-02-27T21:40:15.597Z,5.40
2023-02-27T21:44:01.898Z,5.30
2023-02-27T21:47:43.602Z,5.30
2023-02-27T21:51:38.895Z,5.20
2023-02-27T21:55:21.577Z,5.20
2023-02-27T21:59:04.188Z,5.20
2023-02-27T22:02:46.056Z,5.10
2023-02-27T22:06:31.964Z,5.00
2023-02-27T22:10:13.749Z,5.00
2023-02-27T22:13:55.631Z,4.90
2023-02-27T22:17:37.381Z,4.90
2023-02-27T22:21:22.599Z,4.90
2023-02-27T22:25:04.524Z,4.80
2023-02-27T22:28:46.298Z,4.80
2023-02-27T22:32:28.664Z,4.80
2023-02-27T22:36:12.912Z,4.70
2023-02-27T22:39:54.704Z,4.70
2023-02-27T22:43:38.284Z,4.60
2023-02-27T22:47:20.098Z,4.50
2023-02-27T22:51:08.644Z,4.50
2023-02-27T22:54:50.500Z,4.40
2023-02-27T22:58:37.039Z,4.40
2023-02-27T23:02:18.866Z,4.30
2023-02-27T23:06:00.682Z,4.30
2023-02-27T23:09:42.575Z,4.30
2023-02-27T23:13:24.347Z,4.20
2023-02-27T23:17:06.100Z,4.10
2023-02-27T23:20:47.902Z,4.10
2023-02-27T23:24:29.663Z,4.00
2023-02-27T23:28:12.159Z,3.90
2023-02-27T23:31:54.044Z,3.90
2023-02-27T23:35:36.055Z,3.90
2023-02-27T23:39:17.935Z,3.80
2023-02-27T23:42:59.632Z,3.80
2023-02-27T23:46:41.499Z,3.80
2023-02-27T23:50:26.257Z,3.70
2023-02-27T23:54:08.051Z,3.60
2023-02-27T23:57:54.494Z,3.60
